sensor_id;sensor_type;location;lat;lon;timestamp;P1;durP1;ratioP1;P2;durP2;ratioP2
36351;SDS011;22382;44.768;17.206;2023-03-23T00:01:18;15.13;;;9.18;;
36351;SDS011;22382;44.768;17.206;2023-03-23T00:03:49;23.60;;;12.55;;
36351;SDS011;22382;44.768;17.206;2023-03-23T00:06:17;16.27;;;9.32;;
36351;SDS011;22382;44.768;17.206;2023-03-23T00:08:45;12.88;;;8.23;;
36351;SDS011;22382;44.768;17.206;2023-03-23T00:11:21;11.57;;;6.93;;
36351;SDS011;22382;44.768;17.206;2023-03-23T00:13:50;11.80;;;6.50;;
36351;SDS011;22382;44.768;17.206;2023-03-23T00:16:18;8.20;;;5.30;;
36351;SDS011;22382;44.768;17.206;2023-03-23T00:18:46;8.98;;;5.95;;
36351;SDS011;22382;44.768;17.206;2023-03-23T00:21:14;8.80;;;5.63;;
36351;SDS011;22382;44.768;17.206;2023-03-23T00:23:40;9.15;;;4.38;;
36351;SDS011;22382;44.768;17.206;2023-03-23T00:26:10;7.45;;;4.60;;
36351;SDS011;22382;44.768;17.206;2023-03-23T00:28:36;9.27;;;5.05;;
36351;SDS011;22382;44.768;17.206;2023-03-23T00:31:05;8.43;;;5.22;;
36351;SDS011;22382;44.768;17.206;2023-03-23T00:33:34;10.77;;;5.13;;
36351;SDS011;22382;44.768;17.206;2023-03-23T00:36:09;8.93;;;5.03;;
36351;SDS011;22382;44.768;17.206;2023-03-23T00:38:36;10.38;;;6.60;;
36351;SDS011;22382;44.768;17.206;2023-03-23T00:41:05;14.40;;;7.38;;
36351;SDS011;22382;44.768;17.206;2023-03-23T00:43:32;13.27;;;7.93;;
36351;SDS011;22382;44.768;17.206;2023-03-23T00:46:01;21.85;;;12.02;;
36351;SDS011;22382;44.768;17.206;2023-03-23T00:48:28;21.30;;;12.40;;
36351;SDS011;22382;44.768;17.206;2023-03-23T00:50:54;27.83;;;15.45;;
36351;SDS011;22382;44.768;17.206;2023-03-23T00:53:21;24.60;;;14.00;;
36351;SDS011;22382;44.768;17.206;2023-03-23T00:55:47;25.27;;;14.40;;
36351;SDS011;22382;44.768;17.206;2023-03-23T00:58:14;22.33;;;14.85;;
36351;SDS011;22382;44.768;17.206;2023-03-23T01:00:41;27.27;;;15.70;;
36351;SDS011;22382;44.768;17.206;2023-03-23T01:03:09;24.95;;;13.65;;
36351;SDS011;22382;44.768;17.206;2023-03-23T01:05:43;20.98;;;12.38;;
36351;SDS011;22382;44.768;17.206;2023-03-23T01:08:12;22.73;;;12.48;;
36351;SDS011;22382;44.768;17.206;2023-03-23T01:10:39;27.95;;;15.70;;
36351;SDS011;22382;44.768;17.206;2023-03-23T01:13:05;27.67;;;14.15;;
36351;SDS011;22382;44.768;17.206;2023-03-23T01:15:32;27.77;;;14.48;;
36351;SDS011;22382;44.768;17.206;2023-03-23T01:17:59;24.67;;;14.75;;
36351;SDS011;22382;44.768;17.206;2023-03-23T01:20:25;24.77;;;15.07;;
36351;SDS011;22382;44.768;17.206;2023-03-23T01:22:59;26.42;;;14.60;;
36351;SDS011;22382;44.768;17.206;2023-03-23T01:25:29;25.42;;;15.93;;
36351;SDS011;22382;44.768;17.206;2023-03-23T01:27:57;25.63;;;14.80;;
36351;SDS011;22382;44.768;17.206;2023-03-23T01:30:24;29.30;;;15.07;;
36351;SDS011;22382;44.768;17.206;2023-03-23T01:32:50;27.30;;;14.93;;
36351;SDS011;22382;44.768;17.206;2023-03-23T01:35:17;24.13;;;14.55;;
36351;SDS011;22382;44.768;17.206;2023-03-23T01:37:43;21.90;;;13.75;;
36351;SDS011;22382;44.768;17.206;2023-03-23T01:40:09;21.88;;;13.13;;
36351;SDS011;22382;44.768;17.206;2023-03-23T01:42:36;21.73;;;13.05;;
36351;SDS011;22382;44.768;17.206;2023-03-23T01:47:54;19.60;;;11.60;;
36351;SDS011;22382;44.768;17.206;2023-03-23T01:50:24;15.67;;;10.20;;
36351;SDS011;22382;44.768;17.206;2023-03-23T01:52:53;9.80;;;6.57;;
36351;SDS011;22382;44.768;17.206;2023-03-23T01:55:22;13.05;;;7.00;;
36351;SDS011;22382;44.768;17.206;2023-03-23T01:57:53;12.18;;;8.02;;
36351;SDS011;22382;44.768;17.206;2023-03-23T02:00:21;14.20;;;8.27;;
36351;SDS011;22382;44.768;17.206;2023-03-23T02:02:48;15.57;;;8.07;;
36351;SDS011;22382;44.768;17.206;2023-03-23T02:05:21;15.82;;;10.13;;
36351;SDS011;22382;44.768;17.206;2023-03-23T02:07:58;21.02;;;11.45;;
36351;SDS011;22382;44.768;17.206;2023-03-23T02:10:29;20.60;;;12.55;;
36351;SDS011;22382;44.768;17.206;2023-03-23T02:12:56;19.77;;;11.65;;
36351;SDS011;22382;44.768;17.206;2023-03-23T02:15:28;24.20;;;11.52;;
36351;SDS011;22382;44.768;17.206;2023-03-23T02:18:19;15.05;;;9.25;;
36351;SDS011;22382;44.768;17.206;2023-03-23T02:23:51;17.83;;;9.40;;
36351;SDS011;22382;44.768;17.206;2023-03-23T02:26:45;18.40;;;10.30;;
36351;SDS011;22382;44.768;17.206;2023-03-23T02:35:28;16.80;;;10.55;;
36351;SDS011;22382;44.768;17.206;2023-03-23T02:38:11;16.90;;;9.95;;
36351;SDS011;22382;44.768;17.206;2023-03-23T02:40:53;19.45;;;11.30;;
36351;SDS011;22382;44.768;17.206;2023-03-23T02:43:21;15.55;;;9.98;;
36351;SDS011;22382;44.768;17.206;2023-03-23T02:45:50;17.55;;;10.30;;
36351;SDS011;22382;44.768;17.206;2023-03-23T02:48:18;19.85;;;10.25;;
36351;SDS011;22382;44.768;17.206;2023-03-23T02:50:49;20.20;;;11.13;;
36351;SDS011;22382;44.768;17.206;2023-03-23T02:53:18;18.02;;;10.80;;
36351;SDS011;22382;44.768;17.206;2023-03-23T02:55:49;21.27;;;11.40;;
36351;SDS011;22382;44.768;17.206;2023-03-23T02:58:17;23.25;;;11.30;;
36351;SDS011;22382;44.768;17.206;2023-03-23T03:00:44;20.67;;;11.02;;
36351;SDS011;22382;44.768;17.206;2023-03-23T03:03:15;21.25;;;11.52;;
36351;SDS011;22382;44.768;17.206;2023-03-23T03:08:37;16.23;;;10.55;;
36351;SDS011;22382;44.768;17.206;2023-03-23T03:11:11;17.13;;;9.95;;
36351;SDS011;22382;44.768;17.206;2023-03-23T03:13:47;16.50;;;9.25;;
36351;SDS011;22382;44.768;17.206;2023-03-23T03:16:22;15.52;;;8.63;;
36351;SDS011;22382;44.768;17.206;2023-03-23T03:19:17;15.98;;;8.40;;
36351;SDS011;22382;44.768;17.206;2023-03-23T03:21:53;15.88;;;8.77;;
36351;SDS011;22382;44.768;17.206;2023-03-23T03:24:23;16.60;;;9.80;;
36351;SDS011;22382;44.768;17.206;2023-03-23T03:26:52;15.45;;;8.95;;
36351;SDS011;22382;44.768;17.206;2023-03-23T03:29:27;12.60;;;8.45;;
36351;SDS011;22382;44.768;17.206;2023-03-23T03:31:59;15.18;;;9.43;;
36351;SDS011;22382;44.768;17.206;2023-03-23T03:34:30;13.77;;;8.40;;
36351;SDS011;22382;44.768;17.206;2023-03-23T03:36:57;15.25;;;8.30;;
36351;SDS011;22382;44.768;17.206;2023-03-23T03:39:24;11.65;;;7.15;;
36351;SDS011;22382;44.768;17.206;2023-03-23T03:41:51;12.77;;;7.97;;
36351;SDS011;22382;44.768;17.206;2023-03-23T03:44:18;13.50;;;8.10;;
36351;SDS011;22382;44.768;17.206;2023-03-23T03:46:44;17.17;;;8.88;;
36351;SDS011;22382;44.768;17.206;2023-03-23T03:49:10;13.75;;;8.25;;
36351;SDS011;22382;44.768;17.206;2023-03-23T03:51:40;18.45;;;10.50;;
36351;SDS011;22382;44.768;17.206;2023-03-23T03:54:07;16.10;;;10.02;;
36351;SDS011;22382;44.768;17.206;2023-03-23T03:56:33;18.50;;;11.85;;
36351;SDS011;22382;44.768;17.206;2023-03-23T03:59:05;17.90;;;10.63;;
36351;SDS011;22382;44.768;17.206;2023-03-23T04:01:33;20.73;;;10.10;;
36351;SDS011;22382;44.768;17.206;2023-03-23T04:03:59;16.30;;;9.60;;
36351;SDS011;22382;44.768;17.206;2023-03-23T04:06:26;18.85;;;9.93;;
36351;SDS011;22382;44.768;17.206;2023-03-23T04:08:53;18.27;;;9.77;;
36351;SDS011;22382;44.768;17.206;2023-03-23T04:11:24;17.27;;;10.07;;
36351;SDS011;22382;44.768;17.206;2023-03-23T04:13:51;17.50;;;11.60;;
36351;SDS011;22382;44.768;17.206;2023-03-23T04:16:17;18.13;;;10.10;;
36351;SDS011;22382;44.768;17.206;2023-03-23T04:18:43;17.67;;;9.63;;
36351;SDS011;22382;44.768;17.206;2023-03-23T04:21:10;16.42;;;9.52;;
36351;SDS011;22382;44.768;17.206;2023-03-23T04:23:35;15.57;;;9.73;;
36351;SDS011;22382;44.768;17.206;2023-03-23T04:26:02;16.70;;;10.50;;
36351;SDS011;22382;44.768;17.206;2023-03-23T04:28:29;14.93;;;9.93;;
36351;SDS011;22382;44.768;17.206;2023-03-23T04:30:59;18.05;;;11.05;;
36351;SDS011;22382;44.768;17.206;2023-03-23T04:33:26;15.30;;;8.73;;
36351;SDS011;22382;44.768;17.206;2023-03-23T04:35:56;17.95;;;10.75;;
36351;SDS011;22382;44.768;17.206;2023-03-23T04:38:26;15.15;;;8.73;;
36351;SDS011;22382;44.768;17.206;2023-03-23T04:40:53;14.45;;;7.85;;
36351;SDS011;22382;44.768;17.206;2023-03-23T04:43:20;15.45;;;8.75;;
36351;SDS011;22382;44.768;17.206;2023-03-23T04:45:57;15.30;;;9.10;;
36351;SDS011;22382;44.768;17.206;2023-03-23T04:48:27;14.40;;;8.98;;
36351;SDS011;22382;44.768;17.206;2023-03-23T04:50:55;17.08;;;8.93;;
36351;SDS011;22382;44.768;17.206;2023-03-23T04:53:24;21.02;;;9.18;;
36351;SDS011;22382;44.768;17.206;2023-03-23T04:55:50;16.27;;;9.38;;
36351;SDS011;22382;44.768;17.206;2023-03-23T04:58:16;28.25;;;13.43;;
36351;SDS011;22382;44.768;17.206;2023-03-23T05:00:43;21.98;;;11.18;;
36351;SDS011;22382;44.768;17.206;2023-03-23T05:03:15;20.42;;;10.05;;
36351;SDS011;22382;44.768;17.206;2023-03-23T05:05:42;17.70;;;9.50;;
36351;SDS011;22382;44.768;17.206;2023-03-23T05:08:12;18.13;;;9.30;;
36351;SDS011;22382;44.768;17.206;2023-03-23T05:10:39;12.98;;;8.25;;
36351;SDS011;22382;44.768;17.206;2023-03-23T05:13:05;16.83;;;8.85;;
36351;SDS011;22382;44.768;17.206;2023-03-23T05:15:31;17.00;;;8.55;;
36351;SDS011;22382;44.768;17.206;2023-03-23T05:17:57;16.45;;;9.18;;
36351;SDS011;22382;44.768;17.206;2023-03-23T05:20:23;15.55;;;9.38;;
36351;SDS011;22382;44.768;17.206;2023-03-23T05:22:50;16.58;;;9.15;;
36351;SDS011;22382;44.768;17.206;2023-03-23T05:25:17;16.80;;;9.15;;
36351;SDS011;22382;44.768;17.206;2023-03-23T05:27:47;15.32;;;8.50;;
36351;SDS011;22382;44.768;17.206;2023-03-23T05:30:18;18.50;;;8.80;;
36351;SDS011;22382;44.768;17.206;2023-03-23T05:32:45;18.17;;;10.57;;
36351;SDS011;22382;44.768;17.206;2023-03-23T05:35:16;18.08;;;10.60;;
36351;SDS011;22382;44.768;17.206;2023-03-23T05:37:44;21.30;;;11.20;;
36351;SDS011;22382;44.768;17.206;2023-03-23T05:40:10;21.63;;;10.93;;
36351;SDS011;22382;44.768;17.206;2023-03-23T05:42:37;22.73;;;10.20;;
36351;SDS011;22382;44.768;17.206;2023-03-23T05:45:06;15.88;;;9.73;;
36351;SDS011;22382;44.768;17.206;2023-03-23T05:47:34;15.57;;;9.38;;
36351;SDS011;22382;44.768;17.206;2023-03-23T05:50:00;12.57;;;8.25;;
36351;SDS011;22382;44.768;17.206;2023-03-23T05:52:27;15.82;;;8.50;;
36351;SDS011;22382;44.768;17.206;2023-03-23T05:54:53;15.30;;;8.63;;
36351;SDS011;22382;44.768;17.206;2023-03-23T05:57:19;16.27;;;9.38;;
36351;SDS011;22382;44.768;17.206;2023-03-23T05:59:48;18.92;;;9.65;;
36351;SDS011;22382;44.768;17.206;2023-03-23T06:02:14;16.30;;;9.73;;
36351;SDS011;22382;44.768;17.206;2023-03-23T06:04:41;16.58;;;9.45;;
36351;SDS011;22382;44.768;17.206;2023-03-23T06:07:07;17.02;;;9.25;;
36351;SDS011;22382;44.768;17.206;2023-03-23T06:09:38;17.15;;;8.73;;
36351;SDS011;22382;44.768;17.206;2023-03-23T06:12:05;17.98;;;10.38;;
36351;SDS011;22382;44.768;17.206;2023-03-23T06:14:32;19.00;;;10.00;;
36351;SDS011;22382;44.768;17.206;2023-03-23T06:16:59;21.95;;;11.10;;
36351;SDS011;22382;44.768;17.206;2023-03-23T06:19:25;26.75;;;12.10;;
36351;SDS011;22382;44.768;17.206;2023-03-23T06:21:52;23.70;;;11.25;;
36351;SDS011;22382;44.768;17.206;2023-03-23T06:24:21;25.17;;;11.32;;
36351;SDS011;22382;44.768;17.206;2023-03-23T06:26:47;26.83;;;12.63;;
36351;SDS011;22382;44.768;17.206;2023-03-23T06:29:15;24.00;;;10.95;;
36351;SDS011;22382;44.768;17.206;2023-03-23T06:31:54;21.67;;;10.13;;
36351;SDS011;22382;44.768;17.206;2023-03-23T06:34:22;18.27;;;9.88;;
36351;SDS011;22382;44.768;17.206;2023-03-23T06:36:49;18.45;;;9.18;;
36351;SDS011;22382;44.768;17.206;2023-03-23T06:39:15;17.65;;;8.90;;
36351;SDS011;22382;44.768;17.206;2023-03-23T06:41:41;11.82;;;7.85;;
36351;SDS011;22382;44.768;17.206;2023-03-23T06:44:07;17.58;;;8.85;;
36351;SDS011;22382;44.768;17.206;2023-03-23T06:46:33;9.25;;;6.25;;
36351;SDS011;22382;44.768;17.206;2023-03-23T06:49:00;12.63;;;6.72;;
36351;SDS011;22382;44.768;17.206;2023-03-23T06:51:26;12.30;;;7.82;;
36351;SDS011;22382;44.768;17.206;2023-03-23T06:53:52;16.13;;;6.72;;
36351;SDS011;22382;44.768;17.206;2023-03-23T06:56:17;10.48;;;6.22;;
36351;SDS011;22382;44.768;17.206;2023-03-23T06:58:43;16.88;;;7.35;;
36351;SDS011;22382;44.768;17.206;2023-03-23T07:01:12;22.77;;;7.97;;
36351;SDS011;22382;44.768;17.206;2023-03-23T07:03:40;20.30;;;7.95;;
36351;SDS011;22382;44.768;17.206;2023-03-23T07:06:07;25.05;;;13.38;;
36351;SDS011;22382;44.768;17.206;2023-03-23T07:08:33;19.55;;;8.40;;
36351;SDS011;22382;44.768;17.206;2023-03-23T07:11:00;18.45;;;8.15;;
36351;SDS011;22382;44.768;17.206;2023-03-23T07:13:26;11.05;;;7.28;;
36351;SDS011;22382;44.768;17.206;2023-03-23T07:15:52;12.68;;;6.88;;
36351;SDS011;22382;44.768;17.206;2023-03-23T07:18:19;13.73;;;7.57;;
36351;SDS011;22382;44.768;17.206;2023-03-23T07:20:49;15.10;;;6.68;;
36351;SDS011;22382;44.768;17.206;2023-03-23T07:23:17;9.48;;;5.70;;
36351;SDS011;22382;44.768;17.206;2023-03-23T07:25:44;11.63;;;5.65;;
36351;SDS011;22382;44.768;17.206;2023-03-23T07:28:11;9.23;;;5.07;;
36351;SDS011;22382;44.768;17.206;2023-03-23T07:30:37;10.27;;;4.97;;
36351;SDS011;22382;44.768;17.206;2023-03-23T07:33:05;7.10;;;4.82;;
36351;SDS011;22382;44.768;17.206;2023-03-23T07:35:32;7.35;;;4.47;;
36351;SDS011;22382;44.768;17.206;2023-03-23T07:37:58;8.55;;;4.03;;
36351;SDS011;22382;44.768;17.206;2023-03-23T07:40:25;11.32;;;4.22;;
36351;SDS011;22382;44.768;17.206;2023-03-23T07:42:52;7.38;;;4.20;;
36351;SDS011;22382;44.768;17.206;2023-03-23T07:45:20;6.68;;;4.50;;
36351;SDS011;22382;44.768;17.206;2023-03-23T07:47:47;8.35;;;4.10;;
36351;SDS011;22382;44.768;17.206;2023-03-23T07:50:13;6.57;;;3.90;;
36351;SDS011;22382;44.768;17.206;2023-03-23T07:52:42;9.52;;;4.55;;
36351;SDS011;22382;44.768;17.206;2023-03-23T07:55:09;6.13;;;4.38;;
36351;SDS011;22382;44.768;17.206;2023-03-23T07:57:48;7.10;;;4.85;;
36351;SDS011;22382;44.768;17.206;2023-03-23T08:00:15;6.75;;;4.47;;
36351;SDS011;22382;44.768;17.206;2023-03-23T08:02:45;11.93;;;4.75;;
36351;SDS011;22382;44.768;17.206;2023-03-23T08:05:12;8.52;;;4.20;;
36351;SDS011;22382;44.768;17.206;2023-03-23T08:07:38;7.93;;;4.10;;
36351;SDS011;22382;44.768;17.206;2023-03-23T08:10:06;6.85;;;4.82;;
36351;SDS011;22382;44.768;17.206;2023-03-23T08:12:36;8.60;;;4.40;;
36351;SDS011;22382;44.768;17.206;2023-03-23T08:15:04;11.40;;;6.75;;
36351;SDS011;22382;44.768;17.206;2023-03-23T08:17:32;12.95;;;6.28;;
36351;SDS011;22382;44.768;17.206;2023-03-23T08:19:59;11.13;;;6.25;;
36351;SDS011;22382;44.768;17.206;2023-03-23T08:22:26;12.45;;;6.15;;
36351;SDS011;22382;44.768;17.206;2023-03-23T08:24:54;12.15;;;6.97;;
36351;SDS011;22382;44.768;17.206;2023-03-23T08:27:20;18.88;;;8.35;;
36351;SDS011;22382;44.768;17.206;2023-03-23T08:29:46;17.73;;;7.63;;
36351;SDS011;22382;44.768;17.206;2023-03-23T08:32:13;12.40;;;6.13;;
36351;SDS011;22382;44.768;17.206;2023-03-23T08:34:40;8.48;;;5.60;;
36351;SDS011;22382;44.768;17.206;2023-03-23T08:37:07;11.98;;;6.75;;
36351;SDS011;22382;44.768;17.206;2023-03-23T08:39:34;7.55;;;5.75;;
36351;SDS011;22382;44.768;17.206;2023-03-23T08:42:00;8.93;;;6.25;;
36351;SDS011;22382;44.768;17.206;2023-03-23T08:44:27;9.80;;;5.47;;
36351;SDS011;22382;44.768;17.206;2023-03-23T08:46:54;9.55;;;5.45;;
36351;SDS011;22382;44.768;17.206;2023-03-23T08:49:25;11.18;;;5.65;;
36351;SDS011;22382;44.768;17.206;2023-03-23T08:51:51;14.68;;;4.68;;
36351;SDS011;22382;44.768;17.206;2023-03-23T08:54:17;8.77;;;4.10;;
36351;SDS011;22382;44.768;17.206;2023-03-23T08:56:44;9.70;;;5.25;;
36351;SDS011;22382;44.768;17.206;2023-03-23T08:59:10;7.35;;;3.97;;
36351;SDS011;22382;44.768;17.206;2023-03-23T09:01:36;9.23;;;4.50;;
36351;SDS011;22382;44.768;17.206;2023-03-23T09:04:02;7.13;;;4.10;;
36351;SDS011;22382;44.768;17.206;2023-03-23T09:06:29;10.10;;;4.63;;
36351;SDS011;22382;44.768;17.206;2023-03-23T09:08:55;14.30;;;4.45;;
36351;SDS011;22382;44.768;17.206;2023-03-23T09:11:21;7.07;;;3.92;;
36351;SDS011;22382;44.768;17.206;2023-03-23T09:13:48;13.07;;;4.15;;
36351;SDS011;22382;44.768;17.206;2023-03-23T09:16:14;8.65;;;3.80;;
36351;SDS011;22382;44.768;17.206;2023-03-23T09:18:40;9.20;;;3.08;;
36351;SDS011;22382;44.768;17.206;2023-03-23T09:21:06;5.82;;;2.45;;
36351;SDS011;22382;44.768;17.206;2023-03-23T09:23:33;9.23;;;2.78;;
36351;SDS011;22382;44.768;17.206;2023-03-23T09:26:00;5.05;;;2.28;;
36351;SDS011;22382;44.768;17.206;2023-03-23T09:28:27;5.72;;;2.78;;
36351;SDS011;22382;44.768;17.206;2023-03-23T09:30:54;5.00;;;2.33;;
36351;SDS011;22382;44.768;17.206;2023-03-23T09:33:24;5.50;;;2.70;;
36351;SDS011;22382;44.768;17.206;2023-03-23T09:35:52;8.90;;;2.55;;
36351;SDS011;22382;44.768;17.206;2023-03-23T09:38:18;6.55;;;1.95;;
36351;SDS011;22382;44.768;17.206;2023-03-23T09:40:46;5.72;;;2.30;;
36351;SDS011;22382;44.768;17.206;2023-03-23T09:51:08;4.40;;;2.65;;
36351;SDS011;22382;44.768;17.206;2023-03-23T09:53:41;5.53;;;2.72;;
36351;SDS011;22382;44.768;17.206;2023-03-23T09:56:13;7.53;;;2.65;;
36351;SDS011;22382;44.768;17.206;2023-03-23T09:58:46;7.38;;;2.60;;
36351;SDS011;22382;44.768;17.206;2023-03-23T10:01:35;7.82;;;2.80;;
36351;SDS011;22382;44.768;17.206;2023-03-23T10:04:17;3.78;;;2.10;;
36351;SDS011;22382;44.768;17.206;2023-03-23T10:07:23;2.30;;;1.83;;
36351;SDS011;22382;44.768;17.206;2023-03-23T10:09:55;5.28;;;2.50;;
36351;SDS011;22382;44.768;17.206;2023-03-23T10:18:00;4.20;;;2.20;;
36351;SDS011;22382;44.768;17.206;2023-03-23T10:34:50;2.80;;;1.80;;
36351;SDS011;22382;44.768;17.206;2023-03-23T10:39:56;3.37;;;1.30;;
36351;SDS011;22382;44.768;17.206;2023-03-23T10:42:25;2.08;;;1.40;;
36351;SDS011;22382;44.768;17.206;2023-03-23T10:44:54;3.45;;;1.50;;
36351;SDS011;22382;44.768;17.206;2023-03-23T10:47:22;2.05;;;1.45;;
36351;SDS011;22382;44.768;17.206;2023-03-23T10:52:30;2.22;;;1.40;;
36351;SDS011;22382;44.768;17.206;2023-03-23T10:57:41;3.50;;;1.50;;
36351;SDS011;22382;44.768;17.206;2023-03-23T11:00:21;3.55;;;1.52;;
36351;SDS011;22382;44.768;17.206;2023-03-23T11:03:07;3.55;;;1.73;;
36351;SDS011;22382;44.768;17.206;2023-03-23T11:05:56;2.25;;;1.33;;
36351;SDS011;22382;44.768;17.206;2023-03-23T11:08:33;2.58;;;1.60;;
36351;SDS011;22382;44.768;17.206;2023-03-23T11:13:43;1.75;;;1.40;;
36351;SDS011;22382;44.768;17.206;2023-03-23T11:16:24;3.70;;;1.20;;
36351;SDS011;22382;44.768;17.206;2023-03-23T11:18:53;4.15;;;1.35;;
36351;SDS011;22382;44.768;17.206;2023-03-23T11:21:20;4.38;;;1.73;;
36351;SDS011;22382;44.768;17.206;2023-03-23T11:24:09;1.83;;;1.30;;
36351;SDS011;22382;44.768;17.206;2023-03-23T11:26:34;4.95;;;1.45;;
36351;SDS011;22382;44.768;17.206;2023-03-23T11:29:04;2.17;;;1.20;;
36351;SDS011;22382;44.768;17.206;2023-03-23T11:37:17;2.72;;;1.80;;
36351;SDS011;22382;44.768;17.206;2023-03-23T11:39:46;2.17;;;1.20;;
36351;SDS011;22382;44.768;17.206;2023-03-23T11:42:17;1.90;;;1.25;;
36351;SDS011;22382;44.768;17.206;2023-03-23T11:47:28;1.67;;;1.05;;
36351;SDS011;22382;44.768;17.206;2023-03-23T11:55:35;2.75;;;1.23;;
36351;SDS011;22382;44.768;17.206;2023-03-23T11:58:12;1.30;;;1.02;;
36351;SDS011;22382;44.768;17.206;2023-03-23T12:01:27;3.15;;;1.33;;
36351;SDS011;22382;44.768;17.206;2023-03-23T12:06:06;3.25;;;1.30;;
36351;SDS011;22382;44.768;17.206;2023-03-23T12:08:42;1.88;;;1.17;;
36351;SDS011;22382;44.768;17.206;2023-03-23T12:17:22;4.75;;;1.80;;
36351;SDS011;22382;44.768;17.206;2023-03-23T12:20:18;2.08;;;1.30;;
36351;SDS011;22382;44.768;17.206;2023-03-23T12:22:58;4.38;;;1.80;;
36351;SDS011;22382;44.768;17.206;2023-03-23T12:33:48;1.63;;;1.08;;
36351;SDS011;22382;44.768;17.206;2023-03-23T12:42:43;2.15;;;1.30;;
36351;SDS011;22382;44.768;17.206;2023-03-23T12:44:58;3.17;;;1.40;;
36351;SDS011;22382;44.768;17.206;2023-03-23T12:47:38;3.13;;;1.50;;
36351;SDS011;22382;44.768;17.206;2023-03-23T12:50:13;3.38;;;1.25;;
36351;SDS011;22382;44.768;17.206;2023-03-23T12:55:25;4.80;;;1.52;;
36351;SDS011;22382;44.768;17.206;2023-03-23T12:58:21;1.42;;;1.05;;
36351;SDS011;22382;44.768;17.206;2023-03-23T13:03:23;1.83;;;1.23;;
36351;SDS011;22382;44.768;17.206;2023-03-23T13:09:10;1.33;;;1.08;;
36351;SDS011;22382;44.768;17.206;2023-03-23T13:11:41;5.45;;;1.45;;
36351;SDS011;22382;44.768;17.206;2023-03-23T13:16:55;3.63;;;1.20;;
36351;SDS011;22382;44.768;17.206;2023-03-23T13:19:34;3.13;;;1.45;;
36351;SDS011;22382;44.768;17.206;2023-03-23T13:25:19;2.88;;;1.48;;
36351;SDS011;22382;44.768;17.206;2023-03-23T13:28:18;1.90;;;1.10;;
36351;SDS011;22382;44.768;17.206;2023-03-23T13:30:53;1.33;;;0.85;;
36351;SDS011;22382;44.768;17.206;2023-03-23T13:33:45;1.30;;;0.90;;
36351;SDS011;22382;44.768;17.206;2023-03-23T13:36:14;1.20;;;0.90;;
36351;SDS011;22382;44.768;17.206;2023-03-23T13:38:50;2.10;;;1.00;;
36351;SDS011;22382;44.768;17.206;2023-03-23T13:41:17;1.50;;;1.10;;
36351;SDS011;22382;44.768;17.206;2023-03-23T13:43:46;2.40;;;0.80;;
36351;SDS011;22382;44.768;17.206;2023-03-23T13:59:35;1.95;;;1.23;;
36351;SDS011;22382;44.768;17.206;2023-03-23T14:02:27;3.92;;;1.40;;
36351;SDS011;22382;44.768;17.206;2023-03-23T14:04:56;2.72;;;1.60;;
36351;SDS011;22382;44.768;17.206;2023-03-23T14:07:49;3.00;;;1.10;;
36351;SDS011;22382;44.768;17.206;2023-03-23T14:10:38;1.83;;;1.30;;
36351;SDS011;22382;44.768;17.206;2023-03-23T14:13:21;4.53;;;1.42;;
36351;SDS011;22382;44.768;17.206;2023-03-23T14:15:54;2.90;;;1.50;;
36351;SDS011;22382;44.768;17.206;2023-03-23T14:18:23;4.72;;;2.67;;
36351;SDS011;22382;44.768;17.206;2023-03-23T14:20:54;3.90;;;1.88;;
36351;SDS011;22382;44.768;17.206;2023-03-23T14:23:21;2.70;;;1.50;;
36351;SDS011;22382;44.768;17.206;2023-03-23T14:25:55;2.10;;;1.40;;
36351;SDS011;22382;44.768;17.206;2023-03-23T14:28:30;4.20;;;1.30;;
36351;SDS011;22382;44.768;17.206;2023-03-23T14:30:58;2.13;;;1.00;;
36351;SDS011;22382;44.768;17.206;2023-03-23T14:33:25;2.47;;;1.58;;
36351;SDS011;22382;44.768;17.206;2023-03-23T14:35:52;2.83;;;1.55;;
36351;SDS011;22382;44.768;17.206;2023-03-23T14:38:20;2.58;;;1.45;;
36351;SDS011;22382;44.768;17.206;2023-03-23T14:40:51;6.40;;;1.75;;
36351;SDS011;22382;44.768;17.206;2023-03-23T14:43:19;4.65;;;1.65;;
36351;SDS011;22382;44.768;17.206;2023-03-23T14:45:49;2.85;;;1.50;;
36351;SDS011;22382;44.768;17.206;2023-03-23T14:48:21;2.75;;;1.65;;
36351;SDS011;22382;44.768;17.206;2023-03-23T14:50:49;8.43;;;2.70;;
36351;SDS011;22382;44.768;17.206;2023-03-23T14:53:31;3.45;;;2.10;;
36351;SDS011;22382;44.768;17.206;2023-03-23T14:56:00;2.88;;;2.10;;
36351;SDS011;22382;44.768;17.206;2023-03-23T14:58:30;3.65;;;2.25;;
36351;SDS011;22382;44.768;17.206;2023-03-23T15:00:58;3.15;;;1.98;;
36351;SDS011;22382;44.768;17.206;2023-03-23T15:03:27;2.70;;;2.15;;
36351;SDS011;22382;44.768;17.206;2023-03-23T15:05:59;9.38;;;2.80;;
36351;SDS011;22382;44.768;17.206;2023-03-23T15:08:33;4.90;;;2.80;;
36351;SDS011;22382;44.768;17.206;2023-03-23T15:16:03;4.38;;;3.40;;
36351;SDS011;22382;44.768;17.206;2023-03-23T15:18:32;4.72;;;3.35;;
36351;SDS011;22382;44.768;17.206;2023-03-23T15:21:07;7.25;;;3.40;;
36351;SDS011;22382;44.768;17.206;2023-03-23T15:23:35;5.90;;;3.25;;
36351;SDS011;22382;44.768;17.206;2023-03-23T15:26:15;5.72;;;2.70;;
36351;SDS011;22382;44.768;17.206;2023-03-23T15:28:48;3.53;;;2.35;;
36351;SDS011;22382;44.768;17.206;2023-03-23T15:31:13;4.70;;;3.10;;
36351;SDS011;22382;44.768;17.206;2023-03-23T15:33:40;4.72;;;3.63;;
36351;SDS011;22382;44.768;17.206;2023-03-23T15:36:16;5.20;;;3.90;;
36351;SDS011;22382;44.768;17.206;2023-03-23T15:38:46;7.85;;;3.53;;
36351;SDS011;22382;44.768;17.206;2023-03-23T15:41:26;4.13;;;3.25;;
36351;SDS011;22382;44.768;17.206;2023-03-23T15:43:57;5.53;;;3.50;;
36351;SDS011;22382;44.768;17.206;2023-03-23T15:46:25;4.43;;;3.33;;
36351;SDS011;22382;44.768;17.206;2023-03-23T15:51:25;6.45;;;3.60;;
36351;SDS011;22382;44.768;17.206;2023-03-23T15:53:53;4.80;;;3.50;;
36351;SDS011;22382;44.768;17.206;2023-03-23T15:56:20;5.72;;;3.50;;
36351;SDS011;22382;44.768;17.206;2023-03-23T15:58:47;6.05;;;3.55;;
36351;SDS011;22382;44.768;17.206;2023-03-23T16:01:22;6.57;;;3.00;;
36351;SDS011;22382;44.768;17.206;2023-03-23T16:03:53;5.50;;;3.17;;
36351;SDS011;22382;44.768;17.206;2023-03-23T16:06:35;5.57;;;3.10;;
36351;SDS011;22382;44.768;17.206;2023-03-23T16:09:05;7.90;;;3.67;;
36351;SDS011;22382;44.768;17.206;2023-03-23T16:11:36;13.57;;;3.60;;
36351;SDS011;22382;44.768;17.206;2023-03-23T16:14:03;5.55;;;3.30;;
36351;SDS011;22382;44.768;17.206;2023-03-23T16:16:36;7.57;;;3.47;;
36351;SDS011;22382;44.768;17.206;2023-03-23T16:19:05;4.35;;;3.08;;
36351;SDS011;22382;44.768;17.206;2023-03-23T16:21:33;5.50;;;3.17;;
36351;SDS011;22382;44.768;17.206;2023-03-23T16:24:00;8.43;;;3.42;;
36351;SDS011;22382;44.768;17.206;2023-03-23T16:26:27;5.80;;;2.90;;
36351;SDS011;22382;44.768;17.206;2023-03-23T16:28:54;6.25;;;3.00;;
36351;SDS011;22382;44.768;17.206;2023-03-23T16:31:38;11.55;;;3.75;;
36351;SDS011;22382;44.768;17.206;2023-03-23T16:34:05;8.48;;;3.35;;
36351;SDS011;22382;44.768;17.206;2023-03-23T16:36:33;7.25;;;5.05;;
36351;SDS011;22382;44.768;17.206;2023-03-23T16:39:00;13.80;;;6.85;;
36351;SDS011;22382;44.768;17.206;2023-03-23T16:41:27;11.73;;;7.28;;
36351;SDS011;22382;44.768;17.206;2023-03-23T16:43:55;15.80;;;7.43;;
36351;SDS011;22382;44.768;17.206;2023-03-23T16:46:22;10.85;;;6.72;;
36351;SDS011;22382;44.768;17.206;2023-03-23T16:48:49;10.85;;;7.28;;